Time;durP1;ratioP1;P1;durP2;ratioP2;P2;SDS_P1;SDS_P2;PMS_P1;PMS_P2;Temp;Humidity;BMP_temperature;BMP_pressure;BME280_temperature;BME280_humidity;BME280_pressure;Samples;Min_cycle;Max_cycle;Signal;HPM_P1;HPM_P2
2022/04/01 00:00:04;;;;;;;1.48;0.93;;;;;;;;;;5113918;28;20034;-69
2022/04/01 00:02:30;;;;;;;2.17;1.40;;;;;;;;;;5113764;28;20112;-69
2022/04/01 00:04:56;;;;;;;1.85;1.10;;;;;;;;;;5113401;28;20046;-69
2022/04/01 00:07:22;;;;;;;3.35;1.52;;;;;;;;;;5113767;28;20031;-69
2022/04/01 00:09:48;;;;;;;1.70;1.10;;;;;;;;;;5113853;28;20077;-69
2022/04/01 00:12:14;;;;;;;5.40;1.10;;;;;;;;;;5114172;28;20056;-69
2022/04/01 00:14:40;;;;;;;1.55;1.20;;;;;;;;;;5113730;28;20027;-69
2022/04/01 00:17:06;;;;;;;2.33;1.33;;;;;;;;;;5113751;28;20038;-69
2022/04/01 00:19:32;;;;;;;1.92;0.88;;;;;;;;;;5113576;28;20527;-69
2022/04/01 00:21:59;;;;;;;3.15;1.10;;;;;;;;;;5112673;28;20364;-69
2022/04/01 00:24:25;;;;;;;3.30;1.10;;;;;;;;;;5113575;28;20035;-69
2022/04/01 00:26:51;;;;;;;2.80;1.05;;;;;;;;;;5113631;28;20039;-69
2022/04/01 00:29:17;;;;;;;2.92;1.00;;;;;;;;;;5113355;28;20064;-69
2022/04/01 00:31:43;;;;;;;1.67;1.10;;;;;;;;;;5113222;28;20047;-69
2022/04/01 00:34:15;;;;;;;1.27;0.90;;;;;;;;;;5112886;28;20055;-69
2022/04/01 00:36:42;;;;;;;2.83;1.00;;;;;;;;;;5113741;28;20032;-69
2022/04/01 00:39:08;;;;;;;1.83;1.10;;;;;;;;;;5113633;28;20028;-70
2022/04/01 00:41:34;;;;;;;2.83;1.33;;;;;;;;;;5113588;28;20502;-69
2022/04/01 00:44:20;;;;;;;2.72;1.20;;;;;;;;;;5113622;28;20405;-70
2022/04/01 00:46:49;;;;;;;2.88;1.30;;;;;;;;;;5113315;28;20036;-69
2022/04/01 00:49:15;;;;;;;2.00;1.30;;;;;;;;;;5113355;28;20356;-69
2022/04/01 00:51:42;;;;;;;2.30;1.38;;;;;;;;;;5113240;28;20042;-70
2022/04/01 00:54:09;;;;;;;3.70;1.60;;;;;;;;;;5113200;28;20039;-69
2022/04/01 00:56:36;;;;;;;1.98;1.35;;;;;;;;;;5113175;28;20024;-69
2022/04/01 00:59:02;;;;;;;3.72;1.35;;;;;;;;;;5111588;28;20049;-69
2022/04/01 01:01:30;;;;;;;3.00;1.60;;;;;;;;;;5110096;28;20031;-69
2022/04/01 01:03:57;;;;;;;2.05;1.60;;;;;;;;;;5110575;28;20039;-70
2022/04/01 01:06:23;;;;;;;1.88;1.50;;;;;;;;;;5112760;28;20039;-69
2022/04/01 01:08:49;;;;;;;2.35;1.67;;;;;;;;;;5112981;28;20036;-69
2022/04/01 01:11:15;;;;;;;3.47;1.48;;;;;;;;;;5112965;28;20044;-69
2022/04/01 01:13:42;;;;;;;9.13;1.88;;;;;;;;;;5112730;28;20039;-69
2022/04/01 01:16:07;;;;;;;5.40;1.75;;;;;;;;;;5112829;28;20028;-69
2022/04/01 01:18:34;;;;;;;3.05;1.60;;;;;;;;;;5112838;28;20586;-69
2022/04/01 01:21:00;;;;;;;3.65;1.45;;;;;;;;;;5112931;28;20032;-70
2022/04/01 01:23:30;;;;;;;1.30;1.10;;;;;;;;;;5112719;28;20043;-69
2022/04/01 01:25:56;;;;;;;4.45;1.38;;;;;;;;;;5113093;28;20044;-69
2022/04/01 01:28:23;;;;;;;3.33;1.50;;;;;;;;;;5112608;28;20032;-69
2022/04/01 01:30:49;;;;;;;1.42;1.20;;;;;;;;;;5112952;28;20044;-70
2022/04/01 01:33:15;;;;;;;3.67;1.50;;;;;;;;;;5114207;28;20036;-68
2022/04/01 01:35:42;;;;;;;2.85;1.52;;;;;;;;;;5116246;28;20038;-69
2022/04/01 01:38:08;;;;;;;2.28;1.42;;;;;;;;;;5116488;28;20064;-69
2022/04/01 01:40:34;;;;;;;2.42;1.40;;;;;;;;;;5116312;28;20035;-70
2022/04/01 01:43:01;;;;;;;2.47;1.58;;;;;;;;;;5116168;28;20085;-69
2022/04/01 01:45:29;;;;;;;2.60;1.55;;;;;;;;;;5116278;28;20036;-69
2022/04/01 01:47:55;;;;;;;5.05;1.67;;;;;;;;;;5116615;28;20024;-69
2022/04/01 01:55:51;;;;;;;2.17;1.50;;;;;;;;;;5115845;28;20450;-69
2022/04/01 01:58:18;;;;;;;2.33;1.83;;;;;;;;;;5116592;28;20388;-69
2022/04/01 02:00:45;;;;;;;3.78;1.70;;;;;;;;;;5116482;28;20038;-69
2022/04/01 02:03:12;;;;;;;3.97;1.95;;;;;;;;;;5116008;28;20566;-69
2022/04/01 02:05:38;;;;;;;2.75;1.90;;;;;;;;;;5115925;28;20078;-68
2022/04/01 02:08:05;;;;;;;2.97;2.10;;;;;;;;;;5115662;28;20046;-69
2022/04/01 02:10:32;;;;;;;2.80;2.20;;;;;;;;;;5115934;28;20460;-69
2022/04/01 02:12:58;;;;;;;3.72;2.08;;;;;;;;;;5115925;28;20043;-69
2022/04/01 02:15:24;;;;;;;4.35;2.22;;;;;;;;;;5115953;28;20028;-68
2022/04/01 02:17:50;;;;;;;3.03;2.38;;;;;;;;;;5115749;28;20490;-69
2022/04/01 02:20:16;;;;;;;2.80;2.40;;;;;;;;;;5115667;28;20480;-69
2022/04/01 02:22:44;;;;;;;5.20;2.40;;;;;;;;;;5115874;28;20038;-69
2022/04/01 02:25:11;;;;;;;5.03;2.50;;;;;;;;;;5115973;28;20054;-69
2022/04/01 02:27:37;;;;;;;3.92;2.80;;;;;;;;;;5115698;28;20032;-69
2022/04/01 02:30:11;;;;;;;3.33;2.72;;;;;;;;;;5115571;28;20023;-69
2022/04/01 02:32:41;;;;;;;3.33;2.58;;;;;;;;;;5115250;28;20514;-69
2022/04/01 02:35:07;;;;;;;5.93;2.60;;;;;;;;;;5115506;28;20089;-69
2022/04/01 02:37:34;;;;;;;3.83;2.70;;;;;;;;;;5115615;28;20031;-69
2022/04/01 02:40:00;;;;;;;4.15;2.83;;;;;;;;;;5115463;28;20066;-69
2022/04/01 02:42:26;;;;;;;5.82;2.80;;;;;;;;;;5115270;28;20408;-68
2022/04/01 02:44:52;;;;;;;3.25;2.60;;;;;;;;;;5114450;27;20036;-70
2022/04/01 02:47:18;;;;;;;6.40;3.00;;;;;;;;;;5115684;28;20031;-69
2022/04/01 02:49:44;;;;;;;5.35;2.75;;;;;;;;;;5115508;28;20387;-69
2022/04/01 02:52:11;;;;;;;3.83;2.13;;;;;;;;;;5114991;28;20122;-69
2022/04/01 02:54:37;;;;;;;4.28;2.17;;;;;;;;;;5115455;28;20490;-69
2022/04/01 02:57:03;;;;;;;2.92;2.05;;;;;;;;;;5115168;28;20493;-68
2022/04/01 02:59:29;;;;;;;3.40;2.25;;;;;;;;;;5115282;28;20084;-69
2022/04/01 03:01:55;;;;;;;5.03;2.25;;;;;;;;;;5114886;28;20493;-69
2022/04/01 03:04:22;;;;;;;3.25;2.38;;;;;;;;;;5114613;28;20031;-69
2022/04/01 03:06:49;;;;;;;3.15;2.38;;;;;;;;;;5114821;28;20046;-68
2022/04/01 03:09:15;;;;;;;8.27;3.00;;;;;;;;;;5114830;28;20123;-69
2022/04/01 03:11:42;;;;;;;3.58;2.58;;;;;;;;;;5114811;28;20476;-69
2022/04/01 03:14:09;;;;;;;4.88;2.70;;;;;;;;;;5114644;28;20457;-69
2022/04/01 03:16:36;;;;;;;5.03;2.65;;;;;;;;;;5114789;28;20464;-69
2022/04/01 03:19:02;;;;;;;6.50;3.13;;;;;;;;;;5114567;28;20101;-69
2022/04/01 03:21:29;;;;;;;3.20;2.75;;;;;;;;;;5114707;28;20043;-69
2022/04/01 03:23:55;;;;;;;3.22;2.53;;;;;;;;;;5114547;28;20027;-69
2022/04/01 03:26:22;;;;;;;3.22;2.55;;;;;;;;;;5114721;28;20039;-69
2022/04/01 03:28:48;;;;;;;3.13;2.50;;;;;;;;;;5114706;28;20035;-69
2022/04/01 03:31:14;;;;;;;4.18;2.80;;;;;;;;;;5114424;28;20487;-69
2022/04/01 03:33:44;;;;;;;3.80;2.67;;;;;;;;;;5114169;28;20040;-69
2022/04/01 03:36:10;;;;;;;4.03;2.45;;;;;;;;;;5114495;28;20035;-69
2022/04/01 03:38:36;;;;;;;5.07;2.47;;;;;;;;;;5114312;28;20032;-69
2022/04/01 03:41:05;;;;;;;2.97;2.13;;;;;;;;;;5114189;28;20057;-69
2022/04/01 03:43:35;;;;;;;4.07;2.00;;;;;;;;;;5114116;28;20042;-69
2022/04/01 03:46:04;;;;;;;4.68;2.10;;;;;;;;;;5114003;28;20074;-69
2022/04/01 03:48:35;;;;;;;2.67;1.92;;;;;;;;;;5113948;28;20134;-69
2022/04/01 03:51:04;;;;;;;3.65;2.22;;;;;;;;;;5114191;28;20525;-70
2022/04/01 03:53:31;;;;;;;2.03;1.70;;;;;;;;;;5113966;28;20047;-70
2022/04/01 03:55:58;;;;;;;4.32;1.90;;;;;;;;;;5113947;28;20036;-69
2022/04/01 03:58:34;;;;;;;2.30;1.88;;;;;;;;;;5114110;28;20044;-70
2022/04/01 04:01:01;;;;;;;2.28;1.45;;;;;;;;;;5114070;28;20100;-69
2022/04/01 04:03:29;;;;;;;2.22;1.55;;;;;;;;;;5113856;28;20476;-69
2022/04/01 04:05:56;;;;;;;2.33;1.70;;;;;;;;;;5113738;28;20122;-69
2022/04/01 04:08:23;;;;;;;7.60;1.55;;;;;;;;;;5113898;28;20477;-69
2022/04/01 04:10:50;;;;;;;1.77;1.30;;;;;;;;;;5114053;28;20114;-69
2022/04/01 04:13:16;;;;;;;2.72;1.38;;;;;;;;;;5113724;28;20059;-69
2022/04/01 04:15:49;;;;;;;2.75;1.20;;;;;;;;;;5114045;28;20027;-70
2022/04/01 04:18:16;;;;;;;1.55;1.00;;;;;;;;;;5113307;28;20035;-69
2022/04/01 04:20:50;;;;;;;1.67;1.10;;;;;;;;;;5113932;28;20055;-69
2022/04/01 04:23:31;;;;;;;2.40;1.20;;;;;;;;;;5113307;28;20438;-69
2022/04/01 04:26:01;;;;;;;2.42;1.20;;;;;;;;;;5113730;28;20077;-69
2022/04/01 04:28:32;;;;;;;2.38;1.33;;;;;;;;;;5113746;28;20038;-69
2022/04/01 04:31:02;;;;;;;1.75;1.35;;;;;;;;;;5113370;28;20092;-69
2022/04/01 04:33:31;;;;;;;2.00;1.20;;;;;;;;;;5113485;28;20381;-69
2022/04/01 04:36:04;;;;;;;2.13;1.10;;;;;;;;;;5113672;28;20035;-69
2022/04/01 04:38:30;;;;;;;;;;;;;;;;;;5114066;28;20039;-69
2022/04/01 04:40:56;;;;;;;4.28;0.95;;;;;;;;;;5113358;28;20292;-69
2022/04/01 04:43:23;;;;;;;2.63;1.00;;;;;;;;;;5113332;28;20489;-69
2022/04/01 04:45:52;;;;;;;2.72;1.00;;;;;;;;;;5113453;28;20511;-70
2022/04/01 04:48:18;;;;;;;1.48;1.00;;;;;;;;;;5113248;28;20400;-69
2022/04/01 04:50:47;;;;;;;2.03;1.38;;;;;;;;;;5112902;28;20042;-69
2022/04/01 04:53:13;;;;;;;1.70;1.40;;;;;;;;;;5113497;28;20393;-69
2022/04/01 04:55:40;;;;;;;2.40;1.60;;;;;;;;;;5113311;28;20383;-69
2022/04/01 04:58:08;;;;;;;3.00;1.95;;;;;;;;;;5113058;28;20118;-69
2022/04/01 05:00:35;;;;;;;4.63;1.90;;;;;;;;;;5112995;28;20028;-69
2022/04/01 05:03:08;;;;;;;3.35;2.33;;;;;;;;;;5112905;28;20081;-70
2022/04/01 05:05:54;;;;;;;3.83;2.22;;;;;;;;;;5113126;28;20046;-69
2022/04/01 05:08:20;;;;;;;3.15;2.33;;;;;;;;;;5115254;28;20040;-69
2022/04/01 05:11:05;;;;;;;5.97;2.63;;;;;;;;;;5117229;28;20040;-69
2022/04/01 05:13:40;;;;;;;4.55;2.60;;;;;;;;;;5116794;28;20081;-69
2022/04/01 05:16:11;;;;;;;4.57;2.67;;;;;;;;;;5117081;28;20077;-69
2022/04/01 05:18:42;;;;;;;5.10;2.92;;;;;;;;;;5116815;28;20480;-68
2022/04/01 05:21:13;;;;;;;4.90;2.67;;;;;;;;;;5117041;28;20039;-69
2022/04/01 05:23:51;;;;;;;3.30;2.05;;;;;;;;;;5116972;28;20035;-69
2022/04/01 05:26:20;;;;;;;4.15;2.35;;;;;;;;;;5116988;28;20035;-69
2022/04/01 05:28:51;;;;;;;3.88;2.38;;;;;;;;;;5116804;28;20039;-69
2022/04/01 05:31:33;;;;;;;4.82;2.53;;;;;;;;;;5116556;28;20035;-69
2022/04/01 05:34:00;;;;;;;4.77;3.53;;;;;;;;;;5116666;28;20048;-69
2022/04/01 05:36:26;;;;;;;7.13;2.90;;;;;;;;;;5116840;28;20257;-69
2022/04/01 05:38:53;;;;;;;6.00;2.80;;;;;;;;;;5116530;28;20032;-68
2022/04/01 05:41:21;;;;;;;6.85;3.42;;;;;;;;;;5116757;28;20028;-69
2022/04/01 05:43:47;;;;;;;5.78;3.75;;;;;;;;;;5116544;28;20031;-69
2022/04/01 05:46:17;;;;;;;4.10;3.35;;;;;;;;;;5116256;28;20043;-69
2022/04/01 05:48:44;;;;;;;4.03;2.70;;;;;;;;;;5116245;28;20043;-69
2022/04/01 05:51:13;;;;;;;4.15;2.70;;;;;;;;;;5116627;28;20054;-69
2022/04/01 05:53:39;;;;;;;3.55;2.53;;;;;;;;;;5116107;28;20032;-69
2022/04/01 05:56:09;;;;;;;6.03;2.20;;;;;;;;;;5116224;28;20039;-69
2022/04/01 05:58:35;;;;;;;4.00;2.20;;;;;;;;;;5116311;28;20040;-70
2022/04/01 06:01:01;;;;;;;4.00;1.83;;;;;;;;;;5116307;28;20034;-69
2022/04/01 06:03:28;;;;;;;3.03;2.08;;;;;;;;;;5115708;28;20039;-69
2022/04/01 06:05:54;;;;;;;3.17;2.25;;;;;;;;;;5116037;28;20043;-69
2022/04/01 06:08:23;;;;;;;1.88;1.73;;;;;;;;;;5116238;28;20040;-69
2022/04/01 06:10:58;;;;;;;3.53;2.45;;;;;;;;;;5115885;28;20044;-69
2022/04/01 06:13:36;;;;;;;4.13;2.33;;;;;;;;;;5115914;28;20536;-69
2022/04/01 06:16:15;;;;;;;4.53;2.75;;;;;;;;;;5115530;28;20605;-70
2022/04/01 06:18:56;;;;;;;4.43;2.30;;;;;;;;;;5114674;28;20059;-69
2022/04/01 06:21:27;;;;;;;3.97;2.10;;;;;;;;;;5114678;28;20062;-70
2022/04/01 06:24:22;;;;;;;3.25;1.88;;;;;;;;;;5115135;28;20035;-69
2022/04/01 06:26:57;;;;;;;3.25;1.60;;;;;;;;;;5106313;28;20123;-68
2022/04/01 06:29:34;;;;;;;2.65;1.55;;;;;;;;;;5114275;28;20043;-69
2022/04/01 06:32:07;;;;;;;2.55;1.90;;;;;;;;;;5113507;28;20507;-69
2022/04/01 06:34:40;;;;;;;5.05;2.00;;;;;;;;;;5115010;28;20434;-69
2022/04/01 06:37:08;;;;;;;2.63;1.73;;;;;;;;;;5114449;28;20088;-70
2022/04/01 06:39:47;;;;;;;2.95;2.05;;;;;;;;;;5083670;28;20063;-69
2022/04/01 06:42:20;;;;;;;3.72;2.58;;;;;;;;;;5114634;28;20091;-70
2022/04/01 06:44:49;;;;;;;4.18;2.60;;;;;;;;;;5113751;28;20110;-70
2022/04/01 06:47:15;;;;;;;3.30;2.20;;;;;;;;;;5114009;28;20055;-70
2022/04/01 06:49:42;;;;;;;4.10;1.88;;;;;;;;;;5114230;28;20089;-70
2022/04/01 06:52:08;;;;;;;5.38;2.10;;;;;;;;;;5114464;28;20069;-70
2022/04/01 06:54:34;;;;;;;20.98;5.45;;;;;;;;;;5114846;28;20506;-71
2022/04/01 06:57:00;;;;;;;3.92;2.08;;;;;;;;;;5114769;28;20035;-71
2022/04/01 06:59:26;;;;;;;5.85;2.30;;;;;;;;;;5096227;28;20514;-70
2022/04/01 07:01:52;;;;;;;3.53;2.42;;;;;;;;;;5113391;28;20073;-70
2022/04/01 07:04:18;;;;;;;4.22;2.55;;;;;;;;;;5113949;28;20077;-70
2022/04/01 07:06:44;;;;;;;4.45;2.35;;;;;;;;;;5113956;28;20028;-70
2022/04/01 07:09:10;;;;;;;5.25;2.22;;;;;;;;;;5114469;28;20030;-70
2022/04/01 07:11:36;;;;;;;3.13;2.22;;;;;;;;;;5114196;28;20036;-70
2022/04/01 07:14:02;;;;;;;2.92;2.40;;;;;;;;;;5114050;28;20031;-71
2022/04/01 07:16:28;;;;;;;3.80;2.45;;;;;;;;;;5112624;28;20031;-71
2022/04/01 07:18:54;;;;;;;3.00;2.28;;;;;;;;;;5111752;28;20019;-70
2022/04/01 07:21:20;;;;;;;2.55;2.25;;;;;;;;;;5113316;28;20089;-71
2022/04/01 07:23:46;;;;;;;2.33;1.98;;;;;;;;;;5113871;28;20034;-71
2022/04/01 07:26:13;;;;;;;2.75;1.70;;;;;;;;;;5113928;28;20492;-70
2022/04/01 07:28:39;;;;;;;5.85;2.20;;;;;;;;;;5113971;28;20031;-70
2022/04/01 07:33:51;;;;;;;16.52;2.97;;;;;;;;;;5113668;28;20046;-71
2022/04/01 07:36:19;;;;;;;3.55;1.65;;;;;;;;;;5114296;28;20051;-71
2022/04/01 07:38:45;;;;;;;3.10;1.85;;;;;;;;;;5113438;28;20479;-71
2022/04/01 07:41:12;;;;;;;1.98;1.30;;;;;;;;;;5113742;28;20084;-70
2022/04/01 07:43:38;;;;;;;3.63;1.65;;;;;;;;;;5114135;28;20031;-70
2022/04/01 07:46:04;;;;;;;2.35;1.60;;;;;;;;;;5113875;28;20036;-70
2022/04/01 07:48:30;;;;;;;2.20;1.70;;;;;;;;;;5113584;28;20498;-70
2022/04/01 07:50:56;;;;;;;2.38;2.05;;;;;;;;;;5112870;28;20441;-71
2022/04/01 07:53:22;;;;;;;2.42;1.67;;;;;;;;;;5112314;28;20491;-71
2022/04/01 07:55:49;;;;;;;2.42;1.88;;;;;;;;;;5112710;28;20035;-71
2022/04/01 07:58:16;;;;;;;6.43;2.58;;;;;;;;;;5113374;28;20027;-70
2022/04/01 08:00:42;;;;;;;5.45;2.22;;;;;;;;;;5113893;28;20491;-70
2022/04/01 08:03:09;;;;;;;2.92;2.17;;;;;;;;;;5113353;28;20024;-71
2022/04/01 08:05:35;;;;;;;2.83;2.40;;;;;;;;;;5113194;28;20051;-71
2022/04/01 08:08:01;;;;;;;3.40;2.40;;;;;;;;;;5113251;28;20020;-71
2022/04/01 08:10:27;;;;;;;2.88;2.15;;;;;;;;;;5113314;28;20061;-71
2022/04/01 08:12:53;;;;;;;2.85;2.45;;;;;;;;;;5113277;28;20496;-71
2022/04/01 08:15:19;;;;;;;2.63;2.22;;;;;;;;;;5113199;28;20039;-71
2022/04/01 08:17:45;;;;;;;3.40;2.70;;;;;;;;;;5111881;28;20110;-72
2022/04/01 08:20:12;;;;;;;6.10;2.20;;;;;;;;;;5113097;28;20104;-71
2022/04/01 08:22:41;;;;;;;3.92;2.20;;;;;;;;;;5113512;28;20483;-71
2022/04/01 08:25:08;;;;;;;3.55;2.53;;;;;;;;;;5113437;28;20038;-71
2022/04/01 08:27:34;;;;;;;3.17;2.55;;;;;;;;;;5113624;28;20507;-71
2022/04/01 08:30:00;;;;;;;3.42;2.47;;;;;;;;;;5112398;28;20035;-71
2022/04/01 08:32:28;;;;;;;4.65;2.60;;;;;;;;;;5112991;28;20488;-70
2022/04/01 08:34:54;;;;;;;3.88;2.42;;;;;;;;;;5113360;28;20028;-70
2022/04/01 08:37:20;;;;;;;2.85;2.55;;;;;;;;;;5113326;28;20481;-72
2022/04/01 08:39:47;;;;;;;3.53;2.53;;;;;;;;;;5113081;28;20031;-71
2022/04/01 08:42:13;;;;;;;4.03;2.95;;;;;;;;;;5112616;28;20432;-71
2022/04/01 08:44:41;;;;;;;3.80;3.30;;;;;;;;;;5117228;28;20028;-71
2022/04/01 08:47:10;;;;;;;6.47;2.88;;;;;;;;;;5117171;28;20042;-70
2022/04/01 08:49:36;;;;;;;3.13;2.47;;;;;;;;;;5117503;28;20077;-71
2022/04/01 08:52:04;;;;;;;3.35;2.80;;;;;;;;;;5117163;28;20048;-71
2022/04/01 08:54:34;;;;;;;3.10;2.38;;;;;;;;;;5117461;28;20024;-70
2022/04/01 08:57:00;;;;;;;5.18;2.58;;;;;;;;;;5117738;28;20055;-71
2022/04/01 08:59:29;;;;;;;4.57;2.83;;;;;;;;;;5117294;28;20028;-71
2022/04/01 09:02:06;;;;;;;5.00;2.38;;;;;;;;;;5117496;28;20028;-71
2022/04/01 09:04:32;;;;;;;3.40;2.17;;;;;;;;;;5117656;28;20027;-71
2022/04/01 09:07:09;;;;;;;4.30;2.33;;;;;;;;;;5117165;28;20488;-71
2022/04/01 09:09:35;;;;;;;3.47;2.50;;;;;;;;;;5117190;28;20085;-70
2022/04/01 09:12:15;;;;;;;6.07;2.97;;;;;;;;;;5116855;28;20064;-71
2022/04/01 09:14:42;;;;;;;3.38;2.63;;;;;;;;;;5117133;28;20063;-70
2022/04/01 09:17:12;;;;;;;3.78;2.42;;;;;;;;;;5115635;28;20028;-71
2022/04/01 09:19:39;;;;;;;3.75;2.55;;;;;;;;;;5115229;28;20035;-71
2022/04/01 09:22:15;;;;;;;7.47;2.92;;;;;;;;;;5115122;28;20038;-69
2022/04/01 09:25:02;;;;;;;5.28;2.70;;;;;;;;;;5116843;28;20471;-69
2022/04/01 09:27:38;;;;;;;4.80;2.40;;;;;;;;;;5116780;28;20020;-69
2022/04/01 09:30:05;;;;;;;2.90;1.83;;;;;;;;;;5116701;28;20080;-73
2022/04/01 09:32:38;;;;;;;3.08;2.50;;;;;;;;;;5116334;28;20047;-69
2022/04/01 09:35:04;;;;;;;4.07;2.88;;;;;;;;;;5116733;28;20039;-69
2022/04/01 09:37:38;;;;;;;4.40;2.60;;;;;;;;;;5116612;28;20433;-71
2022/04/01 09:40:04;;;;;;;5.43;3.28;;;;;;;;;;5116624;28;20044;-70
2022/04/01 09:42:30;;;;;;;5.82;3.45;;;;;;;;;;5116322;28;20042;-71
2022/04/01 09:45:00;;;;;;;5.10;3.38;;;;;;;;;;5116501;28;20059;-70
2022/04/01 09:47:26;;;;;;;3.70;2.97;;;;;;;;;;5116511;28;20499;-69
2022/04/01 09:49:54;;;;;;;5.25;2.83;;;;;;;;;;5116502;28;20035;-70
2022/04/01 09:52:22;;;;;;;4.53;3.17;;;;;;;;;;5115802;28;20040;-70
2022/04/01 09:54:49;;;;;;;5.32;2.53;;;;;;;;;;5115783;28;20468;-71
2022/04/01 09:57:16;;;;;;;3.58;2.72;;;;;;;;;;5116069;28;20035;-66
2022/04/01 09:59:43;;;;;;;3.10;2.80;;;;;;;;;;5116130;28;20036;-70
2022/04/01 10:02:09;;;;;;;3.55;2.88;;;;;;;;;;5115887;28;20084;-73
2022/04/01 10:04:35;;;;;;;3.53;3.05;;;;;;;;;;5115766;28;20122;-71
2022/04/01 10:07:02;;;;;;;3.70;3.22;;;;;;;;;;5115855;28;20035;-70
2022/04/01 10:09:29;;;;;;;6.35;3.05;;;;;;;;;;5115570;28;20369;-70
2022/04/01 10:11:58;;;;;;;4.43;3.05;;;;;;;;;;5115344;28;20040;-70
2022/04/01 10:14:25;;;;;;;5.25;4.00;;;;;;;;;;5115179;28;20062;-72
2022/04/01 10:16:51;;;;;;;4.65;4.07;;;;;;;;;;5115238;28;20070;-71
2022/04/01 10:19:37;;;;;;;4.82;3.58;;;;;;;;;;5115125;28;20480;-73
2022/04/01 10:22:04;;;;;;;6.03;4.10;;;;;;;;;;5115267;28;20027;-72
2022/04/01 10:24:43;;;;;;;7.20;4.57;;;;;;;;;;5114957;28;20032;-70
2022/04/01 10:27:15;;;;;;;5.05;4.55;;;;;;;;;;5115174;28;20047;-72
2022/04/01 10:29:43;;;;;;;6.93;4.10;;;;;;;;;;5114729;28;20034;-72
2022/04/01 10:32:26;;;;;;;4.93;4.43;;;;;;;;;;5114745;28;20040;-73
2022/04/01 10:34:53;;;;;;;5.38;4.88;;;;;;;;;;5115223;28;20043;-73
2022/04/01 10:37:22;;;;;;;5.25;4.47;;;;;;;;;;5115237;28;20111;-73
2022/04/01 10:40:00;;;;;;;5.82;4.72;;;;;;;;;;5115144;28;20035;-73
2022/04/01 10:42:33;;;;;;;4.80;4.30;;;;;;;;;;5115436;28;20110;-72
2022/04/01 10:45:04;;;;;;;5.32;4.78;;;;;;;;;;5113573;28;20055;-73
2022/04/01 10:53:33;;;;;;;5.32;4.68;;;;;;;;;;5114373;28;20038;-72
2022/04/01 10:56:17;;;;;;;5.47;4.70;;;;;;;;;;5112728;28;20347;-73
2022/04/01 10:59:02;;;;;;;5.72;4.82;;;;;;;;;;5113228;28;20020;-75
2022/04/01 11:01:28;;;;;;;6.28;4.78;;;;;;;;;;5113456;28;20024;-73
2022/04/01 11:04:00;;;;;;;6.45;5.70;;;;;;;;;;5113518;28;20036;-73
2022/04/01 11:06:27;;;;;;;8.30;7.40;;;;;;;;;;5113494;28;20031;-72
2022/04/01 11:08:54;;;;;;;6.55;5.93;;;;;;;;;;5112817;28;20028;-71
2022/04/01 11:11:20;;;;;;;7.13;5.70;;;;;;;;;;5113968;28;20046;-71
2022/04/01 11:14:02;;;;;;;6.65;5.13;;;;;;;;;;5111421;28;20534;-71
2022/04/01 11:16:28;;;;;;;6.18;5.55;;;;;;;;;;5111277;28;20031;-72
2022/04/01 11:19:14;;;;;;;7.72;5.03;;;;;;;;;;5112364;27;20097;-73
2022/04/01 11:21:40;;;;;;;6.50;5.28;;;;;;;;;;5102946;28;20038;-71
2022/04/01 11:24:21;;;;;;;6.70;5.75;;;;;;;;;;5113497;28;20058;-71
2022/04/01 11:26:48;;;;;;;9.32;6.03;;;;;;;;;;5113657;28;20034;-72
2022/04/01 11:29:21;;;;;;;9.88;6.10;;;;;;;;;;5113744;28;20032;-71
2022/04/01 11:31:47;;;;;;;8.70;6.18;;;;;;;;;;5114537;28;20046;-68
2022/04/01 11:34:13;;;;;;;6.78;5.13;;;;;;;;;;5114321;28;20043;-70
2022/04/01 11:36:40;;;;;;;7.18;5.47;;;;;;;;;;5114486;28;20044;-70
2022/04/01 11:39:09;;;;;;;9.48;6.05;;;;;;;;;;5111087;28;20043;-72
2022/04/01 11:41:51;;;;;;;7.03;5.30;;;;;;;;;;5110942;28;20027;-70
2022/04/01 11:44:17;;;;;;;8.98;5.35;;;;;;;;;;5111093;28;20381;-74
2022/04/01 11:46:49;;;;;;;5.72;4.60;;;;;;;;;;5113601;28;20032;-72
2022/04/01 11:49:16;;;;;;;6.65;5.35;;;;;;;;;;5113833;28;20035;-72
2022/04/01 11:51:42;;;;;;;7.80;5.35;;;;;;;;;;5113763;28;20040;-73
2022/04/01 11:54:10;;;;;;;7.90;5.43;;;;;;;;;;5113376;28;20484;-72
2022/04/01 11:56:36;;;;;;;8.95;5.13;;;;;;;;;;5113798;28;20076;-72
2022/04/01 11:59:03;;;;;;;8.32;5.70;;;;;;;;;;5113577;28;20392;-72
2022/04/01 12:01:30;;;;;;;6.28;4.85;;;;;;;;;;5113624;28;20028;-72
2022/04/01 12:04:04;;;;;;;6.80;5.18;;;;;;;;;;5113429;28;20031;-72
2022/04/01 12:09:15;;;;;;;6.38;4.20;;;;;;;;;;5113571;28;20046;-72
2022/04/01 12:11:42;;;;;;;6.95;4.50;;;;;;;;;;5113366;28;20404;-73
2022/04/01 12:14:08;;;;;;;7.13;4.88;;;;;;;;;;5112919;28;20472;-71
2022/04/01 12:16:39;;;;;;;6.93;4.38;;;;;;;;;;5111293;28;20040;-73
2022/04/01 12:19:05;;;;;;;6.60;3.92;;;;;;;;;;5111881;28;20031;-70
2022/04/01 12:21:31;;;;;;;9.82;4.90;;;;;;;;;;5112584;28;20165;-71
2022/04/01 12:23:57;;;;;;;5.35;4.15;;;;;;;;;;5111397;28;20115;-71
2022/04/01 12:26:26;;;;;;;6.43;4.25;;;;;;;;;;5113348;28;20452;-71
2022/04/01 12:28:52;;;;;;;5.93;3.67;;;;;;;;;;5113050;28;20040;-70
2022/04/01 12:31:21;;;;;;;8.60;5.07;;;;;;;;;;5113183;28;20044;-70
2022/04/01 12:33:49;;;;;;;10.77;5.82;;;;;;;;;;5113378;28;20562;-70
2022/04/01 12:36:15;;;;;;;7.30;5.25;;;;;;;;;;5113355;28;20373;-69
2022/04/01 12:38:43;;;;;;;11.73;4.88;;;;;;;;;;5113498;28;20040;-71
2022/04/01 12:41:16;;;;;;;8.18;5.22;;;;;;;;;;5113099;28;20696;-73
2022/04/01 12:43:43;;;;;;;9.77;5.10;;;;;;;;;;5113086;28;20032;-73
2022/04/01 12:46:17;;;;;;;6.38;4.80;;;;;;;;;;5113153;28;20468;-70
2022/04/01 12:48:45;;;;;;;9.23;5.22;;;;;;;;;;5113372;28;20090;-70
2022/04/01 12:51:16;;;;;;;10.70;5.55;;;;;;;;;;5110404;28;20039;-71
2022/04/01 12:53:52;;;;;;;8.60;5.50;;;;;;;;;;5110403;28;20063;-71
2022/04/01 12:56:19;;;;;;;8.02;4.10;;;;;;;;;;5111481;28;20544;-71
2022/04/01 12:58:53;;;;;;;9.93;4.35;;;;;;;;;;5113070;28;20024;-71
2022/04/01 13:01:23;;;;;;;13.68;4.20;;;;;;;;;;5112926;28;20036;-71
2022/04/01 13:03:49;;;;;;;7.90;4.28;;;;;;;;;;5112612;28;20039;-70
2022/04/01 13:06:16;;;;;;;8.02;3.90;;;;;;;;;;5112110;28;20103;-70
2022/04/01 13:08:43;;;;;;;9.13;4.75;;;;;;;;;;5111942;28;20027;-70
2022/04/01 13:11:12;;;;;;;8.90;3.45;;;;;;;;;;5109038;28;20027;-73
2022/04/01 13:13:39;;;;;;;6.10;3.63;;;;;;;;;;5108938;28;20038;-66
2022/04/01 13:16:05;;;;;;;7.05;3.70;;;;;;;;;;5111237;28;20122;-66
2022/04/01 13:18:32;;;;;;;6.78;4.05;;;;;;;;;;5111625;28;20036;-67
2022/04/01 13:20:58;;;;;;;14.52;3.72;;;;;;;;;;5111344;28;20039;-67
2022/04/01 13:23:30;;;;;;;10.13;3.53;;;;;;;;;;5111925;28;20032;-71
2022/04/01 13:25:57;;;;;;;9.38;3.70;;;;;;;;;;5111483;28;20055;-67
2022/04/01 13:28:23;;;;;;;11.13;3.55;;;;;;;;;;5112294;28;20084;-67
2022/04/01 13:30:49;;;;;;;12.05;3.30;;;;;;;;;;5115906;28;20027;-67
2022/04/01 13:33:15;;;;;;;13.35;3.38;;;;;;;;;;5115560;28;20135;-67
2022/04/01 13:35:41;;;;;;;9.57;3.20;;;;;;;;;;5114508;28;20035;-69
2022/04/01 13:38:07;;;;;;;13.80;2.72;;;;;;;;;;5115371;28;20089;-71
2022/04/01 13:40:34;;;;;;;6.47;2.20;;;;;;;;;;5115599;28;20036;-67
2022/04/01 13:43:00;;;;;;;14.45;4.00;;;13.80;84.60;;;;;;5115640;28;20032;-68
2022/04/01 13:45:26;;;;;;;11.90;2.35;;;13.90;84.10;;;;;;5115339;28;20067;-68
2022/04/01 13:47:51;;;;;;;7.00;2.63;;;14.00;83.90;;;;;;5115148;28;20052;-68
2022/04/01 13:50:18;;;;;;;10.73;3.03;;;;;;;;;;5114977;28;20031;-68
2022/04/01 13:52:44;;;;;;;8.75;3.00;;;;;;;;;;5115267;28;20122;-68
2022/04/01 13:55:10;;;;;;;9.75;2.90;;;;;;;;;;5116055;28;20108;-68
2022/04/01 13:57:36;;;;;;;12.57;3.13;;;;;;;;;;5115018;28;20039;-68
2022/04/01 14:00:02;;;;;;;11.27;2.95;;;;;;;;;;5114750;28;20480;-68
2022/04/01 14:02:28;;;;;;;9.60;2.80;;;14.10;78.50;;;;;;5115141;28;20032;-68
2022/04/01 14:04:54;;;;;;;13.02;3.38;;;;;;;;;;5115539;28;20077;-73
2022/04/01 14:07:20;;;;;;;12.45;2.80;;;14.00;76.80;;;;;;5115950;28;20432;-73
2022/04/01 14:09:46;;;;;;;12.48;2.70;;;14.00;71.10;;;;;;5115969;28;20074;-68
2022/04/01 14:12:13;;;;;;;11.50;2.35;;;14.00;74.30;;;;;;5115597;28;20073;-67
2022/04/01 14:14:39;;;;;;;11.60;2.90;;;13.90;73.70;;;;;;5115298;28;20080;-67
2022/04/01 14:17:06;;;;;;;8.95;3.40;;;13.90;72.40;;;;;;5115077;28;20040;-67
2022/04/01 14:19:34;;;;;;;12.05;3.40;;;13.80;73.30;;;;;;5115411;27;20035;-68
2022/04/01 14:22:00;;;;;;;10.65;3.10;;;13.80;73.50;;;;;;5115680;28;20392;-68
2022/04/01 14:24:25;;;;;;;10.18;2.97;;;13.70;73.90;;;;;;5115632;28;20032;-67
2022/04/01 14:26:55;;;;;;;11.88;2.50;;;13.70;74.10;;;;;;5115482;28;20077;-73
2022/04/01 14:32:05;;;;;;;10.40;2.72;;;13.70;75.20;;;;;;5114429;28;20050;-67
2022/04/01 14:34:40;;;;;;;13.95;2.78;;;13.80;75.90;;;;;;5114641;28;20563;-68
2022/04/01 14:37:07;;;;;;;11.15;2.88;;;13.80;75.70;;;;;;5115381;28;20049;-67
2022/04/01 14:39:33;;;;;;;11.25;3.03;;;13.80;77.00;;;;;;5114720;28;20042;-68
2022/04/01 14:41:59;;;;;;;11.77;3.25;;;13.90;92.30;;;;;;5114856;28;20039;-68
2022/04/01 14:44:26;;;;;;;12.57;3.47;;;;;;;;;;5115286;28;20042;-68
2022/04/01 14:46:52;;;;;;;12.23;3.17;;;13.90;71.80;;;;;;5114894;28;20036;-68
2022/04/01 14:49:19;;;;;;;13.20;2.90;;;13.90;70.20;;;;;;5114051;28;20073;-68
2022/04/01 14:51:46;;;;;;;14.90;3.78;;;13.90;71.30;;;;;;5114480;28;20044;-67
2022/04/01 14:54:14;;;;;;;12.13;2.80;;;14.00;70.30;;;;;;5114292;28;20506;-67
2022/04/01 14:56:40;;;;;;;14.68;3.90;;;14.00;69.80;;;;;;5114406;28;20052;-68
2022/04/01 14:59:06;;;;;;;9.38;2.90;;;14.10;69.20;;;;;;5114389;28;20097;-69